EST,Max TemperatureF,Mean TemperatureF,Min TemperatureF,Max Dew PointF,MeanDew PointF,Min DewpointF,Max Humidity, Mean Humidity, Min Humidity, Max Sea Level PressureIn, Mean Sea Level PressureIn, Min Sea Level PressureIn, Max VisibilityMiles, Mean VisibilityMiles, Min VisibilityMiles, Max Wind SpeedMPH, Mean Wind SpeedMPH, Max Gust SpeedMPH,PrecipitationIn, CloudCover, Events, WindDirDegrees
2013-1-1,28,20,12,28,21,10,100,89,80,30.19,30.13,30.06,10,10,8,8,6,,0.00,5,,296
2013-1-2,19,11,3,7,4,-1,87,74,59,30.29,30.23,30.19,10,10,10,9,6,,0.00,0,,231
2013-1-3,30,21,12,25,17,4,86,78,64,30.31,30.23,30.16,10,10,10,18,12,,0.00,6,Snow,249
2013-1-4,26,19,12,21,15,10,87,81,73,30.33,30.30,30.27,10,10,10,21,13,26,0.00,0,,243
2013-1-5,34,26,17,30,24,15,92,85,75,30.33,30.23,30.09,10,10,2,16,10,,0.00,4,Snow,210
2013-1-6,35,30,24,32,27,19,93,87,80,30.36,30.12,29.99,10,10,10,23,15,29,0.00,8,Rain-Snow,261
2013-1-7,33,23,13,26,20,12,100,88,73,30.44,30.35,30.21,10,9,4,18,7,,0.00,1,,212
2013-1-8,40,31,22,30,25,20,88,79,63,30.28,30.22,30.17,10,10,10,12,9,,0.00,0,,189
2013-1-9,46,39,30,36,33,24,88,78,64,30.53,30.30,30.13,10,10,10,20,14,,0.00,2,Rain,247
2013-1-10,39,32,25,39,33,22,100,87,70,30.54,30.25,30.04,10,9,2,18,10,,0.20,7,Rain,113
2013-1-11,57,48,39,55,49,39,100,94,77,30.04,29.87,29.77,10,10,4,22,12,28,0.33,6,Rain,192
2013-1-12,60,54,48,53,51,46,100,92,74,29.96,29.87,29.74,10,8,3,20,11,25,0.53,4,Rain,55
2013-1-13,50,36,20,50,35,18,100,97,86,30.22,29.93,29.75,10,8,1,20,13,22,0.81,8,Rain-Snow,325
2013-1-14,21,18,14,18,13,10,93,83,79,30.49,30.40,30.23,10,10,7,16,11,21,0.00,6,Snow,320
2013-1-15,28,21,14,21,17,13,93,82,68,30.45,30.35,30.14,10,10,10,13,6,,0.00,3,,49
2013-1-16,35,28,20,27,23,19,96,80,56,30.13,30.04,29.95,10,10,6,18,7,,0.00,3,,254
2013-1-17,37,28,19,30,22,14,97,78,50,30.42,30.24,30.08,10,10,10,18,8,23,0.00,2,,297
2013-1-18,37,27,17,26,20,14,90,70,51,30.48,30.33,30.09,10,10,10,26,11,34,0.01,0,,210
2013-1-19,49,42,36,35,31,26,77,65,53,30.09,29.95,29.84,10,10,10,24,21,36,0.00,0,,228
2013-1-20,39,28,18,30,10,6,70,58,48,30.29,30.18,29.88,10,10,10,29,20,44,0.04,2,,296
2013-1-21,19,13,7,11,5,-5,86,67,46,30.28,30.17,30.11,10,8,0,26,17,33,0.00,6,Snow,286
2013-1-22,13,8,2,0,-2,-5,79,65,47,30.41,30.35,30.28,10,10,10,21,15,29,0.00,3,Snow,285
2013-1-23,21,16,10,12,7,-2,79,64,49,30.38,30.21,30.13,10,10,10,20,10,30,0.00,8,Snow,264
2013-1-24,21,12,4,14,11,2,93,79,48,30.64,30.38,30.20,10,7,1,17,13,23,0.01,5,Snow,357
2013-1-25,25,21,17,21,16,10,93,81,66,30.40,30.17,30.02,10,8,1,14,10,,0.09,7,Snow,147
2013-1-26,29,21,13,18,15,9,87,77,63,30.45,30.35,30.13,10,10,10,12,8,,0.03,6,Snow,290
2013-1-27,34,24,16,35,26,13,100,89,77,30.44,30.25,30.07,10,9,5,18,10,,0.26,7,Rain,137
2013-1-28,50,42,35,51,46,36,100,100,100,30.07,29.98,29.93,10,5,0,22,15,32,0.05,8,Fog-Rain,212
2013-1-29,59,55,51,58,55,50,100,98,92,29.94,29.79,29.36,10,7,1,23,15,31,0.11,8,Rain-Thunderstorm,193
2013-1-30,61,44,26,59,46,25,100,97,86,29.57,29.37,29.24,10,7,1,36,21,45,0.37,7,Rain-Snow-Thunderstorm,256
2013-1-31,26,17,8,23,14,1,93,80,68,30.12,29.84,29.58,10,7,2,31,25,40,0.05,8,Rain-Snow,282